Portada
METAR-TAF:

METAR-TAF

Aeroports :

Horn Island, Austràlia

latitud: 10-35-11S, longitud: 142-07-24E, altitud: 13 m

Observació

L'informe es va fer fa 37 minuts, a les 08:30 UTC
Vent 14 kt del Est/Sud-Est
Temperatura 27°C
Humitat 66%
Pressió 1011 hPa
Visibilitat 10 km o més
Núvols disperses a una alçada de 2600 ft

METAR: YHID 120830Z AUTO 12014KT 9999 // SCT026 27/20 Q1011

Hora: 19:07 (09:07 UTC)

Pronòstic

L'informe es va fer fa 3 hores i 49 minuts, a les 05:18 UTC
Pronòstic vàlid del 12 a les 06 UTC al 13 a les 06 UTC
Vent 18 kt del Est/Sud-Est
Visibilitat 10 km o més
Núvols disperses a una alçada de 2500 ft
A partir de les 12 a les 0900 UTC
Vent 14 kt del Est/Sud-Est
Visibilitat 10 km o més
Núvols disperses a una alçada de 2000 ft
A partir de les 12 a les 2300 UTC
Vent 18 kt del Est/Sud-Est
Visibilitat 10 km o més
Núvols disperses a una alçada de 2500 ft

TAF: YHID 120518Z 1206/1306 11018KT 9999 SCT025 FM120900 12014KT 9999 SCT020 FM122300 11018KT 9999 SCT025

Observacions i pronòstics meteorològics de més de 4000 aeroports (METAR i TAF).

Les estacions disponibles són els punts grocs i vermells al mapa.

Posi el ratolí al punt desitjat per veure el nom de l'estació.

Feu clic per veure les observacions i els pronòstics meteorològics.

Per canviar el mapa: feu clic els botons verds amb una creu de color negre per apropar; al botó verd amb un guió per allunyar la imatge; o en les fletxes verdes per a mapes adjacents.


METAR-TAF: